createdAt,value
2018-07-15T00:01:37.445Z,16.20
2018-07-15T00:04:05.052Z,16.20
2018-07-15T00:06:33.132Z,16.10
2018-07-15T00:09:01.104Z,16.10
2018-07-15T00:11:28.612Z,16.10
2018-07-15T00:13:56.120Z,16.10
2018-07-15T00:16:23.983Z,16.10
2018-07-15T00:18:51.772Z,16.20
2018-07-15T00:21:19.303Z,16.10
2018-07-15T00:23:46.846Z,16.20
2018-07-15T00:26:14.374Z,16.10
2018-07-15T00:28:42.525Z,16.10
2018-07-15T00:31:10.386Z,16.00
2018-07-15T00:33:38.353Z,16.00
2018-07-15T00:36:06.495Z,16.00
2018-07-15T00:38:34.420Z,15.90
2018-07-15T00:41:02.295Z,15.90
2018-07-15T00:43:30.573Z,15.90
2018-07-15T00:45:58.461Z,15.80
2018-07-15T00:48:26.266Z,15.80
2018-07-15T00:50:53.791Z,15.80
2018-07-15T00:53:21.352Z,15.80
2018-07-15T00:55:48.882Z,15.80
2018-07-15T00:58:16.384Z,15.90
2018-07-15T01:00:49.655Z,15.80
2018-07-15T01:03:17.189Z,15.80
2018-07-15T01:05:45.128Z,15.70
2018-07-15T01:08:13.906Z,15.80
2018-07-15T01:10:41.428Z,15.80
2018-07-15T01:13:09.877Z,15.80
2018-07-15T01:15:37.378Z,15.80
2018-07-15T01:18:05.557Z,15.80
2018-07-15T01:20:33.080Z,15.70
2018-07-15T01:23:00.599Z,15.70
2018-07-15T01:25:28.157Z,15.70
2018-07-15T01:27:56.168Z,15.70
2018-07-15T01:30:24.507Z,15.70
2018-07-15T01:32:52.331Z,15.70
2018-07-15T01:35:20.171Z,15.70
2018-07-15T01:37:48.077Z,15.70
2018-07-15T01:40:15.570Z,15.70
2018-07-15T01:42:43.504Z,15.70
2018-07-15T01:45:11.366Z,15.60
2018-07-15T01:47:38.871Z,15.60
2018-07-15T01:50:06.416Z,15.60
2018-07-15T01:52:33.959Z,15.60
2018-07-15T01:55:01.555Z,15.60
2018-07-15T01:57:29.134Z,15.60
2018-07-15T01:59:57.015Z,15.60
2018-07-15T02:02:24.531Z,15.50
2018-07-15T02:04:52.475Z,15.40
2018-07-15T02:07:19.978Z,15.40
2018-07-15T02:09:47.951Z,15.50
2018-07-15T02:12:17.217Z,15.50
2018-07-15T02:14:44.895Z,15.50
2018-07-15T02:17:12.939Z,15.50
2018-07-15T02:19:40.807Z,15.50
2018-07-15T02:22:08.359Z,15.50
2018-07-15T02:24:35.967Z,15.50
2018-07-15T02:27:03.554Z,15.50
2018-07-15T02:29:31.579Z,15.50
2018-07-15T02:31:59.592Z,15.50
2018-07-15T02:34:28.955Z,15.50
2018-07-15T02:36:56.449Z,15.50
2018-07-15T02:39:24.323Z,15.50
2018-07-15T02:41:52.207Z,15.50
2018-07-15T02:44:20.339Z,15.40
2018-07-15T02:46:47.897Z,15.40
2018-07-15T02:49:15.418Z,15.40
2018-07-15T02:51:42.968Z,15.40
2018-07-15T02:54:10.477Z,15.50
2018-07-15T02:56:38.114Z,15.50
2018-07-15T02:59:06.138Z,15.50
2018-07-15T03:01:33.659Z,15.50
2018-07-15T03:04:01.168Z,15.50
2018-07-15T03:06:29.073Z,15.50
2018-07-15T03:08:57.141Z,15.50
2018-07-15T03:11:24.656Z,15.50
2018-07-15T03:13:52.154Z,15.50
2018-07-15T03:16:19.741Z,15.50
2018-07-15T03:18:48.499Z,15.50
2018-07-15T03:21:16.011Z,15.50
2018-07-15T03:23:44.094Z,15.50
2018-07-15T03:26:11.604Z,15.50
2018-07-15T03:28:39.540Z,15.60
2018-07-15T03:31:07.815Z,15.60
2018-07-15T03:33:36.035Z,15.60
2018-07-15T03:36:03.955Z,15.60
2018-07-15T03:38:31.593Z,15.70
2018-07-15T03:40:59.459Z,15.70
2018-07-15T03:43:27.535Z,15.70
2018-07-15T03:45:55.048Z,15.80
2018-07-15T03:48:22.559Z,15.80
2018-07-15T03:50:50.104Z,15.80
2018-07-15T03:53:17.607Z,15.70
2018-07-15T03:55:45.233Z,15.70
2018-07-15T03:58:12.802Z,15.80
2018-07-15T04:00:40.354Z,15.70
2018-07-15T04:03:07.879Z,15.80
2018-07-15T04:05:35.903Z,15.80
2018-07-15T04:08:03.932Z,15.90
2018-07-15T04:10:31.813Z,15.90
2018-07-15T04:12:59.330Z,15.90
2018-07-15T04:15:27.143Z,15.90
2018-07-15T04:18:02.307Z,15.90
2018-07-15T04:20:30.788Z,16.00
2018-07-15T04:22:58.340Z,16.00
2018-07-15T04:25:27.169Z,16.10
2018-07-15T04:27:54.658Z,16.10
2018-07-15T04:30:22.528Z,16.10
2018-07-15T04:32:50.631Z,16.10
2018-07-15T04:35:18.495Z,16.20
2018-07-15T04:37:46.393Z,16.20
2018-07-15T04:40:13.909Z,16.30
2018-07-15T04:42:41.458Z,16.30
2018-07-15T04:45:09.674Z,16.40
2018-07-15T04:47:37.191Z,16.50
2018-07-15T04:50:04.715Z,16.50
2018-07-15T04:52:32.288Z,16.60
2018-07-15T04:54:59.818Z,16.60
2018-07-15T04:57:27.709Z,16.70
2018-07-15T04:59:55.606Z,16.80
2018-07-15T05:02:23.152Z,16.80
2018-07-15T05:04:51.573Z,16.80
2018-07-15T05:07:19.468Z,16.90
2018-07-15T05:09:47.557Z,16.90
2018-07-15T05:12:15.069Z,17.00
2018-07-15T05:14:42.616Z,17.10
2018-07-15T05:17:10.174Z,17.00
2018-07-15T05:19:38.027Z,17.20
2018-07-15T05:22:05.562Z,17.20
2018-07-15T05:24:33.679Z,17.20
2018-07-15T05:27:01.194Z,17.30
2018-07-15T05:31:56.875Z,17.30
2018-07-15T05:34:24.399Z,17.40
2018-07-15T05:36:52.616Z,17.40
2018-07-15T05:39:20.143Z,17.50
2018-07-15T05:41:47.694Z,17.50
2018-07-15T05:44:15.587Z,17.50
2018-07-15T05:46:43.054Z,17.50
2018-07-15T05:49:10.594Z,17.60
2018-07-15T05:51:38.165Z,17.70
2018-07-15T05:54:05.743Z,17.80
2018-07-15T05:56:34.055Z,17.90
2018-07-15T05:59:01.575Z,18.00
2018-07-15T06:01:29.473Z,18.20
2018-07-15T06:03:57.024Z,18.20
2018-07-15T06:08:52.791Z,18.30
2018-07-15T06:11:20.315Z,18.40
2018-07-15T06:13:47.877Z,18.40
2018-07-15T06:16:15.421Z,18.50
2018-07-15T06:18:43.461Z,18.60
2018-07-15T06:21:11.784Z,18.70
2018-07-15T06:23:39.309Z,18.70
2018-07-15T06:26:06.840Z,18.80
2018-07-15T06:31:03.037Z,19.00
2018-07-15T06:33:31.776Z,19.10
2018-07-15T06:35:59.266Z,19.20
2018-07-15T06:38:26.786Z,19.30
2018-07-15T06:40:54.333Z,19.50
2018-07-15T06:43:22.280Z,19.60
2018-07-15T06:45:49.771Z,19.70
2018-07-15T06:48:17.282Z,19.80
2018-07-15T06:50:45.382Z,19.90
2018-07-15T06:53:12.869Z,19.90
2018-07-15T06:55:40.376Z,20.00
2018-07-15T06:58:08.439Z,20.10
2018-07-15T07:00:36.592Z,20.20
2018-07-15T07:03:04.106Z,20.30
2018-07-15T07:05:32.229Z,20.50
2018-07-15T07:08:00.540Z,20.60
2018-07-15T07:10:29.335Z,20.60
2018-07-15T07:12:57.431Z,20.70
2018-07-15T07:15:25.488Z,20.70
2018-07-15T07:17:53.376Z,20.50
2018-07-15T07:20:21.277Z,20.40
2018-07-15T07:22:48.831Z,20.40
2018-07-15T07:25:16.367Z,20.30
2018-07-15T07:27:44.282Z,20.40
2018-07-15T07:30:12.161Z,20.50
2018-07-15T07:32:40.998Z,20.60
2018-07-15T07:35:08.513Z,20.60
2018-07-15T07:37:36.044Z,20.70
2018-07-15T07:40:03.827Z,20.70
2018-07-15T07:42:31.946Z,20.80
2018-07-15T07:44:59.722Z,20.90
2018-07-15T07:47:27.231Z,21.00
2018-07-15T07:49:54.733Z,21.20
2018-07-15T07:52:22.838Z,21.30
2018-07-15T07:54:50.385Z,21.40
2018-07-15T07:57:18.799Z,21.30
2018-07-15T07:59:46.290Z,21.30
2018-07-15T08:02:14.266Z,21.40
2018-07-15T08:04:42.607Z,21.50
2018-07-15T08:09:38.922Z,21.70
2018-07-15T08:12:06.456Z,21.70
2018-07-15T08:14:33.970Z,21.70
2018-07-15T08:17:01.504Z,21.80
2018-07-15T08:19:30.266Z,21.80
2018-07-15T08:21:57.784Z,21.90
2018-07-15T08:24:26.202Z,22.00
2018-07-15T08:29:21.662Z,22.20
2018-07-15T08:31:49.517Z,22.20
2018-07-15T08:34:17.395Z,22.30
2018-07-15T08:36:44.889Z,22.30
2018-07-15T08:39:12.388Z,22.30
2018-07-15T08:41:39.946Z,22.30
2018-07-15T08:44:08.378Z,22.40
2018-07-15T08:46:35.901Z,22.50
2018-07-15T08:49:03.437Z,22.70
2018-07-15T08:51:31.271Z,22.80
2018-07-15T08:53:59.239Z,22.90
2018-07-15T08:56:35.822Z,23.00
2018-07-15T08:59:03.698Z,23.10
2018-07-15T09:01:31.200Z,23.20
2018-07-15T09:03:58.730Z,23.30
2018-07-15T09:06:26.578Z,23.40
2018-07-15T09:08:54.474Z,23.50
2018-07-15T09:11:22.016Z,23.60
2018-07-15T09:13:49.823Z,23.60
2018-07-15T09:16:17.357Z,23.60
2018-07-15T09:18:45.407Z,23.60
2018-07-15T09:21:12.954Z,23.70
2018-07-15T09:23:40.962Z,23.70
2018-07-15T09:26:09.362Z,23.80
2018-07-15T09:28:36.911Z,23.90
2018-07-15T09:31:05.203Z,24.00
2018-07-15T09:33:32.727Z,24.00
2018-07-15T09:36:00.238Z,24.00
2018-07-15T09:38:28.624Z,24.10
2018-07-15T09:40:56.151Z,24.20
2018-07-15T09:43:23.983Z,24.20
2018-07-15T09:45:51.840Z,24.20
2018-07-15T09:48:19.376Z,24.30
2018-07-15T09:50:46.872Z,24.30
2018-07-15T09:53:15.935Z,24.40
2018-07-15T09:55:43.525Z,24.30
2018-07-15T09:58:11.421Z,24.40
2018-07-15T10:00:44.853Z,24.50
2018-07-15T10:03:13.135Z,24.60
2018-07-15T10:05:41.123Z,24.70
2018-07-15T10:08:09.521Z,24.80
2018-07-15T10:10:37.503Z,24.80
2018-07-15T10:13:05.075Z,24.80
2018-07-15T10:15:32.607Z,24.80
2018-07-15T10:18:00.155Z,24.90
2018-07-15T10:22:55.898Z,25.10
2018-07-15T10:25:23.428Z,25.20
2018-07-15T10:27:50.952Z,25.20
2018-07-15T10:30:18.517Z,25.30
2018-07-15T10:32:47.089Z,25.30
2018-07-15T10:37:42.339Z,25.50
2018-07-15T10:40:09.866Z,25.60
2018-07-15T10:42:37.378Z,25.70
2018-07-15T10:45:05.845Z,25.90
2018-07-15T10:47:33.790Z,25.80
2018-07-15T10:52:29.620Z,26.10
2018-07-15T10:54:57.552Z,26.30
2018-07-15T10:57:25.692Z,26.50
2018-07-15T11:02:21.374Z,26.40
2018-07-15T11:04:49.218Z,26.50
2018-07-15T11:07:17.219Z,26.20
2018-07-15T11:09:45.181Z,26.00
2018-07-15T11:12:12.820Z,25.70
2018-07-15T11:17:09.764Z,25.50
2018-07-15T11:19:37.748Z,25.30
2018-07-15T11:22:05.705Z,25.20
2018-07-15T11:24:34.255Z,25.20
2018-07-15T11:27:01.913Z,25.10
2018-07-15T11:29:29.412Z,25.00
2018-07-15T11:31:57.340Z,25.00
2018-07-15T11:34:24.864Z,25.10
2018-07-15T11:36:52.441Z,25.20
2018-07-15T11:39:19.996Z,25.20
2018-07-15T11:41:47.513Z,25.30
2018-07-15T11:44:15.568Z,25.40
2018-07-15T11:46:44.037Z,25.90
2018-07-15T11:51:39.466Z,26.40
2018-07-15T11:54:06.996Z,26.60
2018-07-15T11:56:34.956Z,26.80
2018-07-15T11:59:03.180Z,27.00
2018-07-15T12:01:31.883Z,27.00
2018-07-15T12:06:27.336Z,27.20
2018-07-15T12:08:55.544Z,27.10
2018-07-15T12:11:23.215Z,27.00
2018-07-15T12:13:51.040Z,26.90
2018-07-15T12:21:14.514Z,26.20
2018-07-15T12:23:42.077Z,26.00
2018-07-15T12:26:09.607Z,25.90
2018-07-15T12:28:37.920Z,25.70
2018-07-15T12:31:05.994Z,25.60
2018-07-15T12:33:33.605Z,25.60
2018-07-15T12:40:56.989Z,25.30
2018-07-15T12:43:25.444Z,25.20
2018-07-15T12:45:53.666Z,25.10
2018-07-15T12:50:49.519Z,24.80
2018-07-15T12:55:44.909Z,24.70
2018-07-15T12:58:12.760Z,24.70
2018-07-15T13:00:41.002Z,24.80
2018-07-15T13:05:36.748Z,24.90
2018-07-15T13:08:04.839Z,24.90
2018-07-15T13:10:32.741Z,24.90
2018-07-15T13:13:00.611Z,25.00
2018-07-15T13:15:29.093Z,25.00
2018-07-15T13:17:56.624Z,25.00
2018-07-15T13:20:24.886Z,25.00
2018-07-15T13:22:52.434Z,24.80
2018-07-15T13:25:20.325Z,24.90
2018-07-15T13:27:48.056Z,24.90
2018-07-15T13:30:16.511Z,24.80
2018-07-15T13:32:44.372Z,24.80
2018-07-15T13:35:12.353Z,24.80
2018-07-15T13:37:40.392Z,24.80
2018-07-15T13:40:07.952Z,24.90
2018-07-15T13:42:35.844Z,24.90
2018-07-15T13:47:31.660Z,25.00
2018-07-15T13:49:59.942Z,25.00
2018-07-15T13:52:28.226Z,24.90
2018-07-15T13:54:56.489Z,24.90
2018-07-15T13:57:24.400Z,25.00
2018-07-15T13:59:51.936Z,24.90
2018-07-15T14:02:19.421Z,24.80
2018-07-15T14:04:48.028Z,24.90
2018-07-15T14:07:16.186Z,25.00
2018-07-15T14:09:44.156Z,25.10
2018-07-15T14:12:11.976Z,25.20
2018-07-15T14:14:39.845Z,25.10
2018-07-15T14:17:07.367Z,25.10
2018-07-15T14:19:35.236Z,25.20
2018-07-15T14:22:03.248Z,25.30
2018-07-15T14:24:30.739Z,25.40
2018-07-15T14:26:59.511Z,25.50
2018-07-15T14:29:27.056Z,25.40
2018-07-15T14:31:55.238Z,25.40
2018-07-15T14:34:22.772Z,25.40
2018-07-15T14:36:50.266Z,25.40
2018-07-15T14:39:18.726Z,25.40
2018-07-15T14:44:14.674Z,25.50
2018-07-15T14:49:10.106Z,26.10
2018-07-15T14:51:37.645Z,26.30
2018-07-15T14:54:05.694Z,26.30
2018-07-15T14:56:34.226Z,26.40
2018-07-15T14:59:01.738Z,27.40
2018-07-15T15:01:29.256Z,28.00
2018-07-15T15:06:25.506Z,28.00
2018-07-15T15:08:53.759Z,28.20
2018-07-15T15:11:21.699Z,27.60
2018-07-15T15:13:49.872Z,27.20
2018-07-15T15:16:17.919Z,27.00
2018-07-15T15:21:13.314Z,26.70
2018-07-15T15:23:40.859Z,26.50
2018-07-15T15:26:08.376Z,26.50
2018-07-15T15:28:35.895Z,26.50
2018-07-15T15:31:03.959Z,26.50
2018-07-15T15:33:31.521Z,26.70
2018-07-15T15:35:59.407Z,26.70
2018-07-15T15:38:27.343Z,26.60
2018-07-15T15:40:55.227Z,26.60
2018-07-15T15:43:23.099Z,26.40
2018-07-15T15:45:50.592Z,26.10
2018-07-15T15:48:18.088Z,25.90
2018-07-15T15:50:45.675Z,26.10
2018-07-15T15:55:41.760Z,26.80
2018-07-15T15:58:09.342Z,27.50
2018-07-15T16:00:36.883Z,28.70
2018-07-15T16:03:05.576Z,30.00
2018-07-15T16:05:33.595Z,30.40
2018-07-15T16:08:01.883Z,31.30
2018-07-15T16:10:29.827Z,31.50
2018-07-15T16:12:58.602Z,31.90
2018-07-15T16:15:26.112Z,32.30
2018-07-15T16:17:54.027Z,32.10
2018-07-15T16:20:22.064Z,32.00
2018-07-15T16:22:49.568Z,32.30
2018-07-15T16:25:17.089Z,32.50
2018-07-15T16:27:44.611Z,32.30
2018-07-15T16:30:12.155Z,30.90
2018-07-15T16:32:40.092Z,29.80
2018-07-15T16:35:07.964Z,29.20
2018-07-15T16:37:35.523Z,28.60
2018-07-15T16:40:03.132Z,28.30
2018-07-15T16:42:30.682Z,27.90
2018-07-15T16:44:58.773Z,27.50
2018-07-15T16:47:26.858Z,27.30
2018-07-15T16:49:54.739Z,27.40
2018-07-15T16:52:22.330Z,27.30
2018-07-15T16:54:49.834Z,27.00
2018-07-15T16:57:17.378Z,26.70
2018-07-15T16:59:44.887Z,26.20
2018-07-15T17:02:12.559Z,25.60
2018-07-15T17:04:41.018Z,25.40
2018-07-15T17:07:09.157Z,25.30
2018-07-15T17:09:37.153Z,25.80
2018-07-15T17:12:04.873Z,25.90
2018-07-15T17:14:32.387Z,25.80
2018-07-15T17:16:59.944Z,25.90
2018-07-15T17:19:27.840Z,24.90
2018-07-15T17:21:56.477Z,24.50
2018-07-15T17:24:23.999Z,24.00
2018-07-15T17:26:51.511Z,23.60
2018-07-15T17:29:19.031Z,23.50
2018-07-15T17:31:46.882Z,23.20
2018-07-15T17:34:14.775Z,23.00
2018-07-15T17:36:42.784Z,22.90
2018-07-15T17:39:10.914Z,22.70
2018-07-15T17:41:38.429Z,22.60
2018-07-15T17:44:06.349Z,22.70
2018-07-15T17:46:35.103Z,22.40
2018-07-15T17:49:02.620Z,22.50
2018-07-15T17:51:30.142Z,22.20
2018-07-15T17:53:57.637Z,22.20
2018-07-15T17:56:25.239Z,21.90
2018-07-15T17:58:52.965Z,21.90
2018-07-15T18:01:21.031Z,21.50
2018-07-15T18:03:49.690Z,21.50
2018-07-15T18:08:45.742Z,21.30
2018-07-15T18:11:13.552Z,21.10
2018-07-15T18:13:41.608Z,21.00
2018-07-15T18:16:09.107Z,21.00
2018-07-15T18:18:37.397Z,20.80
2018-07-15T18:21:05.485Z,20.70
2018-07-15T18:23:33.010Z,20.70
2018-07-15T18:26:00.560Z,20.60
2018-07-15T18:28:28.096Z,20.60
2018-07-15T18:30:56.277Z,20.50
2018-07-15T18:33:23.870Z,20.50
2018-07-15T18:35:51.809Z,20.50
2018-07-15T18:38:19.321Z,20.40
2018-07-15T18:40:47.306Z,20.40
2018-07-15T18:43:15.860Z,20.30
2018-07-15T18:45:43.960Z,20.30
2018-07-15T18:48:11.872Z,20.30
2018-07-15T18:50:39.502Z,20.20
2018-07-15T18:53:07.049Z,20.20
2018-07-15T18:55:34.631Z,20.20
2018-07-15T18:58:02.881Z,20.10
2018-07-15T19:00:30.422Z,20.10
2018-07-15T19:02:58.518Z,20.10
2018-07-15T19:05:27.350Z,20.00
2018-07-15T19:07:55.775Z,20.00
2018-07-15T19:10:23.670Z,19.90
2018-07-15T19:12:51.592Z,19.90
2018-07-15T19:15:19.119Z,19.70
2018-07-15T19:17:46.839Z,19.70
2018-07-15T19:20:14.746Z,19.60
2018-07-15T19:22:42.437Z,19.50
2018-07-15T19:25:11.617Z,19.60
2018-07-15T19:27:39.596Z,19.60
2018-07-15T19:30:08.267Z,19.60
2018-07-15T19:32:36.616Z,19.60
2018-07-15T19:35:04.532Z,19.70
2018-07-15T19:37:32.160Z,19.50
2018-07-15T19:40:00.173Z,19.50
2018-07-15T19:42:28.154Z,19.30
2018-07-15T19:44:56.379Z,19.30
2018-07-15T19:47:24.326Z,19.30
2018-07-15T19:49:51.895Z,19.20
2018-07-15T19:52:19.620Z,19.10
2018-07-15T19:54:47.416Z,19.10
2018-07-15T19:57:15.390Z,19.00
2018-07-15T19:59:44.004Z,18.90
2018-07-15T20:02:11.883Z,18.80
2018-07-15T20:04:39.395Z,18.80
2018-07-15T20:09:34.847Z,18.70
2018-07-15T20:12:02.683Z,18.70
2018-07-15T20:14:30.983Z,18.60
2018-07-15T20:16:59.255Z,18.40
2018-07-15T20:19:27.526Z,18.40
2018-07-15T20:21:55.058Z,18.40
2018-07-15T20:24:22.586Z,18.30
2018-07-15T20:26:50.447Z,18.20
2018-07-15T20:29:18.600Z,18.20
2018-07-15T20:34:14.002Z,18.10
2018-07-15T20:36:41.914Z,18.00
2018-07-15T20:39:10.027Z,17.90
2018-07-15T20:41:37.577Z,17.80
2018-07-15T20:44:05.615Z,17.80
2018-07-15T20:46:33.220Z,17.70
2018-07-15T20:49:00.737Z,17.70
2018-07-15T20:51:28.714Z,17.60
2018-07-15T20:53:57.329Z,17.60
2018-07-15T20:56:25.536Z,17.50
2018-07-15T20:58:53.603Z,17.40
2018-07-15T21:01:21.119Z,17.50
2018-07-15T21:03:48.659Z,17.40
2018-07-15T21:06:16.924Z,17.40
2018-07-15T21:08:44.962Z,17.40
2018-07-15T21:13:40.445Z,17.20
2018-07-15T21:16:08.474Z,17.30
2018-07-15T21:18:36.850Z,17.20
2018-07-15T21:21:04.356Z,17.10
2018-07-15T21:23:32.323Z,17.00
2018-07-15T21:25:59.802Z,17.00
2018-07-15T21:28:27.664Z,17.00
2018-07-15T21:30:55.738Z,17.00
2018-07-15T21:33:23.250Z,16.90
2018-07-15T21:35:51.239Z,16.90
2018-07-15T21:43:14.999Z,16.90
2018-07-15T21:45:42.535Z,16.80
2018-07-15T21:48:10.711Z,16.80
2018-07-15T21:50:38.974Z,16.80
2018-07-15T21:53:06.493Z,16.80
2018-07-15T21:55:34.411Z,16.70
2018-07-15T21:58:01.917Z,16.70
2018-07-15T22:00:29.437Z,16.70
2018-07-15T22:02:57.895Z,16.70
2018-07-15T22:05:26.501Z,16.60
2018-07-15T22:08:06.667Z,16.60
2018-07-15T22:10:39.959Z,16.60
2018-07-15T22:13:07.397Z,16.60
2018-07-15T22:15:35.029Z,16.60
2018-07-15T22:18:02.626Z,16.50
2018-07-15T22:20:30.876Z,16.50
2018-07-15T22:22:58.379Z,16.50
2018-07-15T22:25:26.573Z,16.50
2018-07-15T22:27:54.078Z,16.40
2018-07-15T22:30:22.234Z,16.40
2018-07-15T22:32:50.186Z,16.40
2018-07-15T22:35:18.067Z,16.40
2018-07-15T22:40:13.362Z,16.40
2018-07-15T22:42:40.881Z,16.40
2018-07-15T22:45:08.717Z,16.40
2018-07-15T22:47:36.208Z,16.40
2018-07-15T22:50:04.577Z,16.50
2018-07-15T22:52:32.443Z,16.50
2018-07-15T22:54:59.973Z,16.50
2018-07-15T22:57:27.792Z,16.50
2018-07-15T22:59:55.690Z,16.50
2018-07-15T23:02:23.716Z,16.50
2018-07-15T23:08:24.966Z,16.40
2018-07-15T23:10:53.443Z,16.30
2018-07-15T23:13:21.274Z,16.30
2018-07-15T23:15:49.331Z,16.30
2018-07-15T23:18:17.466Z,16.30
2018-07-15T23:20:45.783Z,16.30
2018-07-15T23:23:14.647Z,16.30
2018-07-15T23:25:42.211Z,16.20
2018-07-15T23:28:10.545Z,16.30
2018-07-15T23:30:39.178Z,16.20
2018-07-15T23:33:07.565Z,16.20
2018-07-15T23:35:35.738Z,16.10
2018-07-15T23:38:03.696Z,16.10
2018-07-15T23:40:31.277Z,16.10
2018-07-15T23:42:59.704Z,16.00
2018-07-15T23:45:28.563Z,16.00
2018-07-15T23:47:56.911Z,16.00
2018-07-15T23:50:25.154Z,15.90
2018-07-15T23:52:53.282Z,15.80
2018-07-15T23:55:21.006Z,15.90
2018-07-15T23:57:48.559Z,15.80
